aviador You're here:

OPSK Decoded Metar

SUKKUR in PAKISTAN
Report Time2017-07-22 02:00:00
UTC Time2017-07-22 02:29:24
Flight Rules ifr IFR
WindCalm
Visibility3000 m
Phenomena:Haze
Clouds:Scattered 200 Hf
Expected CloudBase > 2,000 ft AGL from Temp-Dew spread
CeilingNone
Temp32°C (ISA +17)
Dew Point27°C (75% RH)
Heat Index42.3°C
QNH0995 hPa
Density Alt3,248 ft
Elevation190 ft
Report Wrong Elevation
Raw Report
METAR OPSK 220200Z 00000KT 3000 HZ SCT200 32/27 Q0995 NOSIG=

Extra information for OPSK:More info

Metar Taf Metar & Taf Last 4 Metars F.Rules Stats Wind Profile Meteogram Temp Stats Airport Information Weather charts Add Link Nearby VenuesMetar ALERT Operation Metar Decoded Social comments